Terminal Aerodrome Forecast
Issued by NWS

Home | Current Version | Previous Version | Graphics & Text | Print | Product List | Glossary On
Versions: 1 2 3 4 5 6 7 8 9 10 11 12 13 14 15 16 17 18 19 20 21 22 23 24
000
FTUS45 KGGW 251100
TAFOLF
TAF
KOLF 251140Z 2512/2612 07010KT P6SM VCSH OVC070
     FM251800 21007KT 6SM -SHRA BKN018 OVC040
     FM252100 28013KT 6SM -SHRA BKN027 OVC060
     FM260000 29007KT P6SM VCSH BKN026 BKN045
     FM260300 VRB03KT P6SM VCSH BKN045=

USA.gov is the U.S. government's official web portal to all federal, state and local government web resources and services.